sensor_id;sensor_type;location;lat;lon;timestamp;P1;durP1;ratioP1;P2;durP2;ratioP2
5961;SDS011;3007;50.770;0.250;2023-04-03T00:01:46;10.80;;;1.60;;
5961;SDS011;3007;50.770;0.250;2023-04-03T00:04:13;7.80;;;1.73;;
5961;SDS011;3007;50.770;0.250;2023-04-03T00:06:40;6.00;;;1.10;;
5961;SDS011;3007;50.770;0.250;2023-04-03T00:09:08;6.70;;;1.07;;
5961;SDS011;3007;50.770;0.250;2023-04-03T00:11:35;4.33;;;1.40;;
5961;SDS011;3007;50.770;0.250;2023-04-03T00:14:02;9.83;;;1.60;;
5961;SDS011;3007;50.770;0.250;2023-04-03T00:16:29;5.33;;;1.50;;
5961;SDS011;3007;50.770;0.250;2023-04-03T00:18:56;8.20;;;1.13;;
5961;SDS011;3007;50.770;0.250;2023-04-03T00:21:23;4.67;;;1.40;;
5961;SDS011;3007;50.770;0.250;2023-04-03T00:23:50;11.43;;;1.30;;
5961;SDS011;3007;50.770;0.250;2023-04-03T00:26:18;4.00;;;1.23;;
5961;SDS011;3007;50.770;0.250;2023-04-03T00:28:45;5.53;;;1.80;;
5961;SDS011;3007;50.770;0.250;2023-04-03T00:31:13;5.53;;;1.60;;
5961;SDS011;3007;50.770;0.250;2023-04-03T00:33:41;6.33;;;1.53;;
5961;SDS011;3007;50.770;0.250;2023-04-03T00:36:08;10.60;;;1.47;;
5961;SDS011;3007;50.770;0.250;2023-04-03T00:38:36;7.00;;;1.57;;
5961;SDS011;3007;50.770;0.250;2023-04-03T00:41:03;7.47;;;1.70;;
5961;SDS011;3007;50.770;0.250;2023-04-03T00:43:32;3.80;;;1.37;;
5961;SDS011;3007;50.770;0.250;2023-04-03T00:45:59;7.57;;;1.40;;
5961;SDS011;3007;50.770;0.250;2023-04-03T00:48:27;8.73;;;1.90;;
5961;SDS011;3007;50.770;0.250;2023-04-03T00:50:56;4.67;;;1.40;;
5961;SDS011;3007;50.770;0.250;2023-04-03T00:53:25;8.43;;;1.30;;
5961;SDS011;3007;50.770;0.250;2023-04-03T00:55:55;6.63;;;1.20;;
5961;SDS011;3007;50.770;0.250;2023-04-03T00:58:25;11.83;;;1.80;;
5961;SDS011;3007;50.770;0.250;2023-04-03T01:00:59;8.33;;;1.83;;
5961;SDS011;3007;50.770;0.250;2023-04-03T01:03:35;6.80;;;1.50;;
5961;SDS011;3007;50.770;0.250;2023-04-03T01:06:02;5.90;;;1.30;;
5961;SDS011;3007;50.770;0.250;2023-04-03T01:08:29;5.43;;;1.30;;
5961;SDS011;3007;50.770;0.250;2023-04-03T01:10:56;3.17;;;1.00;;
5961;SDS011;3007;50.770;0.250;2023-04-03T01:13:24;4.13;;;1.20;;
5961;SDS011;3007;50.770;0.250;2023-04-03T01:15:53;6.83;;;1.30;;
5961;SDS011;3007;50.770;0.250;2023-04-03T01:18:22;4.77;;;1.50;;
5961;SDS011;3007;50.770;0.250;2023-04-03T01:23:52;12.03;;;1.70;;
5961;SDS011;3007;50.770;0.250;2023-04-03T01:26:28;5.57;;;1.07;;
5961;SDS011;3007;50.770;0.250;2023-04-03T01:28:56;5.03;;;0.90;;
5961;SDS011;3007;50.770;0.250;2023-04-03T01:31:26;9.53;;;1.30;;
5961;SDS011;3007;50.770;0.250;2023-04-03T01:33:57;6.10;;;1.10;;
5961;SDS011;3007;50.770;0.250;2023-04-03T01:36:26;6.80;;;1.33;;
5961;SDS011;3007;50.770;0.250;2023-04-03T01:38:54;5.37;;;1.63;;
5961;SDS011;3007;50.770;0.250;2023-04-03T01:41:25;3.20;;;1.00;;
5961;SDS011;3007;50.770;0.250;2023-04-03T01:43:52;5.80;;;1.40;;
5961;SDS011;3007;50.770;0.250;2023-04-03T01:46:20;4.57;;;1.17;;
5961;SDS011;3007;50.770;0.250;2023-04-03T01:48:47;3.77;;;1.10;;
5961;SDS011;3007;50.770;0.250;2023-04-03T01:51:15;7.77;;;1.70;;
5961;SDS011;3007;50.770;0.250;2023-04-03T01:53:43;3.83;;;1.00;;
5961;SDS011;3007;50.770;0.250;2023-04-03T01:56:10;6.23;;;0.90;;
5961;SDS011;3007;50.770;0.250;2023-04-03T01:58:37;10.90;;;2.23;;
5961;SDS011;3007;50.770;0.250;2023-04-03T02:01:03;3.83;;;0.97;;
5961;SDS011;3007;50.770;0.250;2023-04-03T02:03:31;10.27;;;1.80;;
5961;SDS011;3007;50.770;0.250;2023-04-03T02:05:58;7.07;;;1.20;;
5961;SDS011;3007;50.770;0.250;2023-04-03T02:08:26;4.83;;;1.30;;
5961;SDS011;3007;50.770;0.250;2023-04-03T02:10:53;8.73;;;1.47;;
5961;SDS011;3007;50.770;0.250;2023-04-03T02:13:20;3.43;;;1.33;;
5961;SDS011;3007;50.770;0.250;2023-04-03T02:15:47;8.47;;;1.60;;
5961;SDS011;3007;50.770;0.250;2023-04-03T02:18:14;10.37;;;1.50;;
5961;SDS011;3007;50.770;0.250;2023-04-03T02:20:41;7.73;;;1.47;;
5961;SDS011;3007;50.770;0.250;2023-04-03T02:23:08;5.07;;;1.20;;
5961;SDS011;3007;50.770;0.250;2023-04-03T02:25:36;5.80;;;1.20;;
5961;SDS011;3007;50.770;0.250;2023-04-03T02:28:03;3.47;;;1.20;;
5961;SDS011;3007;50.770;0.250;2023-04-03T02:30:31;2.33;;;0.87;;
5961;SDS011;3007;50.770;0.250;2023-04-03T02:32:58;3.63;;;1.27;;
5961;SDS011;3007;50.770;0.250;2023-04-03T02:35:25;3.27;;;1.10;;
5961;SDS011;3007;50.770;0.250;2023-04-03T02:37:51;10.10;;;1.73;;
5961;SDS011;3007;50.770;0.250;2023-04-03T02:40:18;11.30;;;1.50;;
5961;SDS011;3007;50.770;0.250;2023-04-03T02:42:47;8.97;;;1.23;;
5961;SDS011;3007;50.770;0.250;2023-04-03T02:45:14;11.00;;;1.60;;
5961;SDS011;3007;50.770;0.250;2023-04-03T02:47:41;6.17;;;1.27;;
5961;SDS011;3007;50.770;0.250;2023-04-03T02:50:08;6.43;;;1.20;;
5961;SDS011;3007;50.770;0.250;2023-04-03T02:52:35;5.90;;;1.40;;
5961;SDS011;3007;50.770;0.250;2023-04-03T02:55:02;6.90;;;1.33;;
5961;SDS011;3007;50.770;0.250;2023-04-03T02:57:30;9.27;;;1.33;;
5961;SDS011;3007;50.770;0.250;2023-04-03T02:59:58;4.70;;;1.27;;
5961;SDS011;3007;50.770;0.250;2023-04-03T03:02:25;5.30;;;1.60;;
5961;SDS011;3007;50.770;0.250;2023-04-03T03:04:52;6.07;;;1.40;;
5961;SDS011;3007;50.770;0.250;2023-04-03T03:07:19;4.67;;;1.33;;
5961;SDS011;3007;50.770;0.250;2023-04-03T03:09:46;2.07;;;1.07;;
5961;SDS011;3007;50.770;0.250;2023-04-03T03:12:13;9.80;;;1.73;;
5961;SDS011;3007;50.770;0.250;2023-04-03T03:14:39;6.83;;;1.37;;
5961;SDS011;3007;50.770;0.250;2023-04-03T03:17:09;4.17;;;1.10;;
5961;SDS011;3007;50.770;0.250;2023-04-03T03:19:36;5.87;;;1.23;;
5961;SDS011;3007;50.770;0.250;2023-04-03T03:22:03;12.23;;;1.47;;
5961;SDS011;3007;50.770;0.250;2023-04-03T03:24:30;2.07;;;0.90;;
5961;SDS011;3007;50.770;0.250;2023-04-03T03:26:57;6.67;;;1.60;;
5961;SDS011;3007;50.770;0.250;2023-04-03T03:29:24;3.50;;;1.40;;
5961;SDS011;3007;50.770;0.250;2023-04-03T03:31:51;8.50;;;1.77;;
5961;SDS011;3007;50.770;0.250;2023-04-03T03:34:20;9.77;;;1.50;;
5961;SDS011;3007;50.770;0.250;2023-04-03T03:36:47;9.03;;;1.40;;
5961;SDS011;3007;50.770;0.250;2023-04-03T03:39:14;8.73;;;1.57;;
5961;SDS011;3007;50.770;0.250;2023-04-03T03:41:40;6.93;;;1.57;;
5961;SDS011;3007;50.770;0.250;2023-04-03T03:44:07;11.53;;;1.80;;
5961;SDS011;3007;50.770;0.250;2023-04-03T03:46:35;4.97;;;1.27;;
5961;SDS011;3007;50.770;0.250;2023-04-03T03:49:01;14.03;;;1.77;;
5961;SDS011;3007;50.770;0.250;2023-04-03T03:51:30;3.53;;;1.50;;
5961;SDS011;3007;50.770;0.250;2023-04-03T03:53:57;6.23;;;1.30;;
5961;SDS011;3007;50.770;0.250;2023-04-03T03:56:23;6.77;;;1.47;;
5961;SDS011;3007;50.770;0.250;2023-04-03T03:58:51;8.27;;;1.63;;
5961;SDS011;3007;50.770;0.250;2023-04-03T04:01:18;5.87;;;1.47;;
5961;SDS011;3007;50.770;0.250;2023-04-03T04:03:47;7.07;;;2.50;;
5961;SDS011;3007;50.770;0.250;2023-04-03T04:06:14;6.37;;;2.13;;
5961;SDS011;3007;50.770;0.250;2023-04-03T04:08:42;11.97;;;2.00;;
5961;SDS011;3007;50.770;0.250;2023-04-03T04:11:09;4.47;;;1.73;;
5961;SDS011;3007;50.770;0.250;2023-04-03T04:13:36;7.40;;;1.90;;
5961;SDS011;3007;50.770;0.250;2023-04-03T04:16:03;7.33;;;1.70;;
5961;SDS011;3007;50.770;0.250;2023-04-03T04:18:30;5.63;;;2.23;;
5961;SDS011;3007;50.770;0.250;2023-04-03T04:20:57;9.77;;;2.43;;
5961;SDS011;3007;50.770;0.250;2023-04-03T04:23:24;7.97;;;2.30;;
5961;SDS011;3007;50.770;0.250;2023-04-03T04:25:53;6.63;;;2.13;;
5961;SDS011;3007;50.770;0.250;2023-04-03T04:28:20;13.77;;;2.43;;
5961;SDS011;3007;50.770;0.250;2023-04-03T04:30:47;6.70;;;2.13;;
5961;SDS011;3007;50.770;0.250;2023-04-03T04:33:13;12.40;;;2.23;;
5961;SDS011;3007;50.770;0.250;2023-04-03T04:35:41;6.43;;;2.60;;
5961;SDS011;3007;50.770;0.250;2023-04-03T04:38:08;7.90;;;2.23;;
5961;SDS011;3007;50.770;0.250;2023-04-03T04:40:35;4.37;;;2.23;;
5961;SDS011;3007;50.770;0.250;2023-04-03T04:43:04;4.70;;;2.07;;
5961;SDS011;3007;50.770;0.250;2023-04-03T04:45:31;15.67;;;2.73;;
5961;SDS011;3007;50.770;0.250;2023-04-03T04:47:58;7.17;;;2.20;;
5961;SDS011;3007;50.770;0.250;2023-04-03T04:50:25;7.20;;;2.10;;
5961;SDS011;3007;50.770;0.250;2023-04-03T04:52:52;6.93;;;2.90;;
5961;SDS011;3007;50.770;0.250;2023-04-03T04:55:19;9.27;;;2.70;;
5961;SDS011;3007;50.770;0.250;2023-04-03T04:57:46;6.77;;;2.30;;
5961;SDS011;3007;50.770;0.250;2023-04-03T05:00:15;8.50;;;2.50;;
5961;SDS011;3007;50.770;0.250;2023-04-03T05:02:42;5.30;;;2.03;;
5961;SDS011;3007;50.770;0.250;2023-04-03T05:05:09;5.33;;;2.20;;
5961;SDS011;3007;50.770;0.250;2023-04-03T05:07:36;9.77;;;2.50;;
5961;SDS011;3007;50.770;0.250;2023-04-03T05:10:03;9.23;;;2.83;;
5961;SDS011;3007;50.770;0.250;2023-04-03T05:12:31;8.80;;;2.57;;
5961;SDS011;3007;50.770;0.250;2023-04-03T05:14:58;14.73;;;3.10;;
5961;SDS011;3007;50.770;0.250;2023-04-03T05:17:26;10.23;;;2.57;;
5961;SDS011;3007;50.770;0.250;2023-04-03T05:19:53;10.73;;;3.10;;
5961;SDS011;3007;50.770;0.250;2023-04-03T05:22:20;6.30;;;2.20;;
5961;SDS011;3007;50.770;0.250;2023-04-03T05:24:47;8.43;;;2.20;;
5961;SDS011;3007;50.770;0.250;2023-04-03T05:27:14;12.97;;;2.77;;
5961;SDS011;3007;50.770;0.250;2023-04-03T05:29:41;8.23;;;2.70;;
5961;SDS011;3007;50.770;0.250;2023-04-03T05:32:08;9.57;;;2.17;;
5961;SDS011;3007;50.770;0.250;2023-04-03T05:34:37;9.73;;;2.60;;
5961;SDS011;3007;50.770;0.250;2023-04-03T05:37:04;8.67;;;2.50;;
5961;SDS011;3007;50.770;0.250;2023-04-03T05:39:31;7.93;;;2.70;;
5961;SDS011;3007;50.770;0.250;2023-04-03T05:41:58;10.43;;;3.17;;
5961;SDS011;3007;50.770;0.250;2023-04-03T05:44:25;11.63;;;3.30;;
5961;SDS011;3007;50.770;0.250;2023-04-03T05:46:52;11.63;;;2.97;;
5961;SDS011;3007;50.770;0.250;2023-04-03T05:49:19;8.00;;;2.57;;
5961;SDS011;3007;50.770;0.250;2023-04-03T05:51:48;8.47;;;2.60;;
5961;SDS011;3007;50.770;0.250;2023-04-03T05:54:16;13.73;;;2.40;;
5961;SDS011;3007;50.770;0.250;2023-04-03T05:56:48;11.67;;;3.10;;
5961;SDS011;3007;50.770;0.250;2023-04-03T05:59:14;7.67;;;2.63;;
5961;SDS011;3007;50.770;0.250;2023-04-03T06:01:42;7.43;;;3.10;;
5961;SDS011;3007;50.770;0.250;2023-04-03T06:04:09;7.60;;;2.73;;
5961;SDS011;3007;50.770;0.250;2023-04-03T06:06:42;6.13;;;2.80;;
5961;SDS011;3007;50.770;0.250;2023-04-03T06:09:11;7.50;;;2.87;;
5961;SDS011;3007;50.770;0.250;2023-04-03T06:11:39;10.07;;;3.10;;
5961;SDS011;3007;50.770;0.250;2023-04-03T06:14:06;6.67;;;3.10;;
5961;SDS011;3007;50.770;0.250;2023-04-03T06:16:34;9.17;;;2.77;;
5961;SDS011;3007;50.770;0.250;2023-04-03T06:19:01;11.63;;;3.23;;
5961;SDS011;3007;50.770;0.250;2023-04-03T06:21:29;11.47;;;3.30;;
5961;SDS011;3007;50.770;0.250;2023-04-03T06:23:56;5.07;;;2.50;;
5961;SDS011;3007;50.770;0.250;2023-04-03T06:26:24;10.40;;;3.43;;
5961;SDS011;3007;50.770;0.250;2023-04-03T06:28:52;11.93;;;3.30;;
5961;SDS011;3007;50.770;0.250;2023-04-03T06:31:19;5.40;;;2.47;;
5961;SDS011;3007;50.770;0.250;2023-04-03T06:33:46;9.77;;;2.83;;
5961;SDS011;3007;50.770;0.250;2023-04-03T06:36:13;10.80;;;2.80;;
5961;SDS011;3007;50.770;0.250;2023-04-03T06:38:44;5.13;;;2.60;;
5961;SDS011;3007;50.770;0.250;2023-04-03T06:41:11;9.60;;;2.90;;
5961;SDS011;3007;50.770;0.250;2023-04-03T06:43:40;15.93;;;3.00;;
5961;SDS011;3007;50.770;0.250;2023-04-03T06:46:09;10.73;;;2.87;;
5961;SDS011;3007;50.770;0.250;2023-04-03T06:48:40;5.63;;;2.27;;
5961;SDS011;3007;50.770;0.250;2023-04-03T06:51:08;10.10;;;2.93;;
5961;SDS011;3007;50.770;0.250;2023-04-03T06:53:40;5.07;;;2.80;;
5961;SDS011;3007;50.770;0.250;2023-04-03T06:56:07;9.27;;;3.00;;
5961;SDS011;3007;50.770;0.250;2023-04-03T06:58:34;8.87;;;2.77;;
5961;SDS011;3007;50.770;0.250;2023-04-03T07:01:03;7.90;;;3.00;;
5961;SDS011;3007;50.770;0.250;2023-04-03T07:03:30;10.87;;;3.07;;
5961;SDS011;3007;50.770;0.250;2023-04-03T07:05:57;8.70;;;2.77;;
5961;SDS011;3007;50.770;0.250;2023-04-03T07:08:24;7.07;;;2.63;;
5961;SDS011;3007;50.770;0.250;2023-04-03T07:10:51;5.30;;;2.43;;
5961;SDS011;3007;50.770;0.250;2023-04-03T07:13:18;10.63;;;3.00;;
5961;SDS011;3007;50.770;0.250;2023-04-03T07:15:45;6.10;;;2.80;;
5961;SDS011;3007;50.770;0.250;2023-04-03T07:18:13;7.60;;;2.90;;
5961;SDS011;3007;50.770;0.250;2023-04-03T07:20:42;5.83;;;2.70;;
5961;SDS011;3007;50.770;0.250;2023-04-03T07:23:09;8.03;;;2.73;;
5961;SDS011;3007;50.770;0.250;2023-04-03T07:25:36;8.20;;;2.90;;
5961;SDS011;3007;50.770;0.250;2023-04-03T07:28:07;8.27;;;2.43;;
5961;SDS011;3007;50.770;0.250;2023-04-03T07:30:34;9.03;;;2.63;;
5961;SDS011;3007;50.770;0.250;2023-04-03T07:33:07;13.40;;;2.87;;
5961;SDS011;3007;50.770;0.250;2023-04-03T07:35:36;8.13;;;2.23;;
5961;SDS011;3007;50.770;0.250;2023-04-03T07:38:04;12.73;;;2.77;;
5961;SDS011;3007;50.770;0.250;2023-04-03T07:40:32;4.73;;;3.07;;
5961;SDS011;3007;50.770;0.250;2023-04-03T07:43:00;5.10;;;2.27;;
5961;SDS011;3007;50.770;0.250;2023-04-03T07:45:27;8.17;;;2.70;;
5961;SDS011;3007;50.770;0.250;2023-04-03T07:47:55;7.33;;;2.67;;
5961;SDS011;3007;50.770;0.250;2023-04-03T07:50:22;8.73;;;2.97;;
5961;SDS011;3007;50.770;0.250;2023-04-03T07:52:50;6.83;;;2.40;;
5961;SDS011;3007;50.770;0.250;2023-04-03T07:55:19;5.63;;;2.30;;
5961;SDS011;3007;50.770;0.250;2023-04-03T07:57:46;7.70;;;2.97;;
5961;SDS011;3007;50.770;0.250;2023-04-03T08:00:13;6.50;;;2.63;;
5961;SDS011;3007;50.770;0.250;2023-04-03T08:02:42;7.53;;;2.20;;
5961;SDS011;3007;50.770;0.250;2023-04-03T08:05:15;7.30;;;2.67;;
5961;SDS011;3007;50.770;0.250;2023-04-03T08:07:42;4.97;;;2.70;;
5961;SDS011;3007;50.770;0.250;2023-04-03T08:10:10;7.27;;;2.60;;
5961;SDS011;3007;50.770;0.250;2023-04-03T08:12:37;9.97;;;3.30;;
5961;SDS011;3007;50.770;0.250;2023-04-03T08:15:05;7.13;;;2.50;;
5961;SDS011;3007;50.770;0.250;2023-04-03T08:17:33;5.00;;;2.33;;
5961;SDS011;3007;50.770;0.250;2023-04-03T08:20:00;6.07;;;2.33;;
5961;SDS011;3007;50.770;0.250;2023-04-03T08:22:27;7.37;;;3.00;;
5961;SDS011;3007;50.770;0.250;2023-04-03T08:24:54;6.83;;;3.20;;
5961;SDS011;3007;50.770;0.250;2023-04-03T08:27:23;8.17;;;3.33;;
5961;SDS011;3007;50.770;0.250;2023-04-03T08:29:49;7.00;;;3.63;;
5961;SDS011;3007;50.770;0.250;2023-04-03T08:32:16;7.47;;;4.23;;
5961;SDS011;3007;50.770;0.250;2023-04-03T08:34:46;6.93;;;3.93;;
5961;SDS011;3007;50.770;0.250;2023-04-03T08:37:13;6.67;;;4.10;;
5961;SDS011;3007;50.770;0.250;2023-04-03T08:39:41;8.00;;;4.50;;
5961;SDS011;3007;50.770;0.250;2023-04-03T08:42:11;5.57;;;4.03;;
5961;SDS011;3007;50.770;0.250;2023-04-03T08:44:46;8.10;;;5.13;;
5961;SDS011;3007;50.770;0.250;2023-04-03T08:47:20;10.33;;;5.27;;
5961;SDS011;3007;50.770;0.250;2023-04-03T08:49:51;8.13;;;5.07;;
5961;SDS011;3007;50.770;0.250;2023-04-03T08:52:23;8.57;;;5.00;;
5961;SDS011;3007;50.770;0.250;2023-04-03T08:54:58;11.37;;;5.47;;
5961;SDS011;3007;50.770;0.250;2023-04-03T08:57:29;10.90;;;5.30;;
5961;SDS011;3007;50.770;0.250;2023-04-03T09:00:01;9.83;;;5.67;;
5961;SDS011;3007;50.770;0.250;2023-04-03T09:02:33;10.63;;;6.07;;
5961;SDS011;3007;50.770;0.250;2023-04-03T09:05:06;9.27;;;6.03;;
5961;SDS011;3007;50.770;0.250;2023-04-03T09:07:40;12.07;;;6.63;;
5961;SDS011;3007;50.770;0.250;2023-04-03T09:10:11;8.97;;;6.43;;
5961;SDS011;3007;50.770;0.250;2023-04-03T09:12:41;12.90;;;6.50;;
5961;SDS011;3007;50.770;0.250;2023-04-03T09:15:18;10.00;;;6.57;;
5961;SDS011;3007;50.770;0.250;2023-04-03T09:17:49;8.13;;;6.00;;
5961;SDS011;3007;50.770;0.250;2023-04-03T09:20:27;10.50;;;5.63;;
5961;SDS011;3007;50.770;0.250;2023-04-03T09:23:04;8.90;;;5.60;;
5961;SDS011;3007;50.770;0.250;2023-04-03T09:25:39;8.77;;;5.70;;
5961;SDS011;3007;50.770;0.250;2023-04-03T09:28:07;11.50;;;5.90;;
5961;SDS011;3007;50.770;0.250;2023-04-03T09:30:36;7.63;;;4.60;;
5961;SDS011;3007;50.770;0.250;2023-04-03T09:33:04;11.23;;;4.97;;
5961;SDS011;3007;50.770;0.250;2023-04-03T09:35:32;6.50;;;4.57;;
5961;SDS011;3007;50.770;0.250;2023-04-03T09:38:01;6.83;;;3.17;;
5961;SDS011;3007;50.770;0.250;2023-04-03T09:40:41;5.50;;;3.27;;
5961;SDS011;3007;50.770;0.250;2023-04-03T09:43:25;5.30;;;3.07;;
5961;SDS011;3007;50.770;0.250;2023-04-03T09:45:55;4.13;;;3.10;;
5961;SDS011;3007;50.770;0.250;2023-04-03T09:48:23;7.57;;;3.37;;
5961;SDS011;3007;50.770;0.250;2023-04-03T09:50:54;4.30;;;2.60;;
5961;SDS011;3007;50.770;0.250;2023-04-03T09:53:28;5.07;;;3.10;;
5961;SDS011;3007;50.770;0.250;2023-04-03T09:55:57;4.83;;;2.40;;
5961;SDS011;3007;50.770;0.250;2023-04-03T09:58:26;5.90;;;2.43;;
5961;SDS011;3007;50.770;0.250;2023-04-03T10:00:57;4.73;;;2.30;;
5961;SDS011;3007;50.770;0.250;2023-04-03T10:03:27;5.10;;;2.23;;
5961;SDS011;3007;50.770;0.250;2023-04-03T10:05:56;4.47;;;2.27;;
5961;SDS011;3007;50.770;0.250;2023-04-03T10:08:25;6.67;;;1.90;;
5961;SDS011;3007;50.770;0.250;2023-04-03T10:11:11;6.87;;;2.33;;
5961;SDS011;3007;50.770;0.250;2023-04-03T10:13:50;2.73;;;2.00;;
5961;SDS011;3007;50.770;0.250;2023-04-03T10:16:26;2.73;;;1.63;;
5961;SDS011;3007;50.770;0.250;2023-04-03T10:19:03;5.97;;;2.10;;
5961;SDS011;3007;50.770;0.250;2023-04-03T10:21:53;5.17;;;2.50;;
5961;SDS011;3007;50.770;0.250;2023-04-03T10:24:27;8.13;;;2.40;;
5961;SDS011;3007;50.770;0.250;2023-04-03T10:27:02;4.13;;;1.73;;
5961;SDS011;3007;50.770;0.250;2023-04-03T10:29:39;6.77;;;2.13;;
5961;SDS011;3007;50.770;0.250;2023-04-03T10:32:34;3.77;;;2.03;;
5961;SDS011;3007;50.770;0.250;2023-04-03T10:35:14;6.47;;;2.23;;
5961;SDS011;3007;50.770;0.250;2023-04-03T10:37:50;3.30;;;1.80;;
5961;SDS011;3007;50.770;0.250;2023-04-03T10:40:30;3.57;;;1.53;;
5961;SDS011;3007;50.770;0.250;2023-04-03T10:43:04;7.90;;;2.00;;
5961;SDS011;3007;50.770;0.250;2023-04-03T10:45:43;7.47;;;2.13;;
5961;SDS011;3007;50.770;0.250;2023-04-03T10:48:23;4.37;;;1.47;;
5961;SDS011;3007;50.770;0.250;2023-04-03T10:51:01;3.13;;;1.73;;
5961;SDS011;3007;50.770;0.250;2023-04-03T10:53:36;2.77;;;1.40;;
5961;SDS011;3007;50.770;0.250;2023-04-03T10:56:11;3.20;;;1.50;;
5961;SDS011;3007;50.770;0.250;2023-04-03T10:58:45;4.30;;;1.90;;
5961;SDS011;3007;50.770;0.250;2023-04-03T11:01:16;3.50;;;1.47;;
5961;SDS011;3007;50.770;0.250;2023-04-03T11:03:49;3.90;;;1.80;;
5961;SDS011;3007;50.770;0.250;2023-04-03T11:06:21;3.80;;;2.20;;
5961;SDS011;3007;50.770;0.250;2023-04-03T11:08:52;4.97;;;2.10;;
5961;SDS011;3007;50.770;0.250;2023-04-03T11:11:24;2.70;;;1.80;;
5961;SDS011;3007;50.770;0.250;2023-04-03T11:13:54;5.67;;;1.80;;
5961;SDS011;3007;50.770;0.250;2023-04-03T11:16:27;6.03;;;1.90;;
5961;SDS011;3007;50.770;0.250;2023-04-03T11:18:59;4.37;;;1.90;;
5961;SDS011;3007;50.770;0.250;2023-04-03T11:21:31;6.97;;;2.40;;
5961;SDS011;3007;50.770;0.250;2023-04-03T11:24:01;6.40;;;1.83;;
5961;SDS011;3007;50.770;0.250;2023-04-03T11:26:35;2.80;;;2.00;;
5961;SDS011;3007;50.770;0.250;2023-04-03T11:29:07;4.07;;;1.50;;
5961;SDS011;3007;50.770;0.250;2023-04-03T11:31:41;5.33;;;2.03;;
5961;SDS011;3007;50.770;0.250;2023-04-03T11:34:23;9.43;;;2.50;;
5961;SDS011;3007;50.770;0.250;2023-04-03T11:37:01;4.70;;;2.20;;
5961;SDS011;3007;50.770;0.250;2023-04-03T11:39:36;3.53;;;2.03;;
5961;SDS011;3007;50.770;0.250;2023-04-03T11:42:13;3.70;;;1.73;;
5961;SDS011;3007;50.770;0.250;2023-04-03T11:44:41;3.30;;;1.50;;
5961;SDS011;3007;50.770;0.250;2023-04-03T11:47:08;2.23;;;1.67;;
5961;SDS011;3007;50.770;0.250;2023-04-03T11:49:51;4.47;;;2.00;;
5961;SDS011;3007;50.770;0.250;2023-04-03T11:58:25;5.33;;;2.17;;
5961;SDS011;3007;50.770;0.250;2023-04-03T12:00:57;2.87;;;1.80;;
5961;SDS011;3007;50.770;0.250;2023-04-03T12:09:56;3.13;;;1.60;;
5961;SDS011;3007;50.770;0.250;2023-04-03T12:12:29;2.77;;;1.70;;
5961;SDS011;3007;50.770;0.250;2023-04-03T12:17:50;2.60;;;1.67;;
5961;SDS011;3007;50.770;0.250;2023-04-03T12:23:23;3.50;;;2.00;;
5961;SDS011;3007;50.770;0.250;2023-04-03T12:26:02;2.73;;;1.73;;
5961;SDS011;3007;50.770;0.250;2023-04-03T12:28:38;4.57;;;1.70;;
5961;SDS011;3007;50.770;0.250;2023-04-03T12:31:05;3.37;;;1.80;;
5961;SDS011;3007;50.770;0.250;2023-04-03T12:33:38;6.33;;;1.80;;
5961;SDS011;3007;50.770;0.250;2023-04-03T12:36:35;4.30;;;2.20;;
5961;SDS011;3007;50.770;0.250;2023-04-03T12:39:17;3.93;;;2.37;;
5961;SDS011;3007;50.770;0.250;2023-04-03T12:42:03;2.73;;;1.93;;
5961;SDS011;3007;50.770;0.250;2023-04-03T12:44:45;3.00;;;1.40;;
5961;SDS011;3007;50.770;0.250;2023-04-03T12:47:22;3.43;;;2.07;;
5961;SDS011;3007;50.770;0.250;2023-04-03T12:49:52;4.67;;;2.20;;
5961;SDS011;3007;50.770;0.250;2023-04-03T12:52:25;3.23;;;1.87;;
5961;SDS011;3007;50.770;0.250;2023-04-03T12:55:02;4.77;;;2.00;;
5961;SDS011;3007;50.770;0.250;2023-04-03T12:57:36;4.70;;;2.07;;
5961;SDS011;3007;50.770;0.250;2023-04-03T13:00:18;6.03;;;2.20;;
5961;SDS011;3007;50.770;0.250;2023-04-03T13:02:52;4.43;;;1.97;;
5961;SDS011;3007;50.770;0.250;2023-04-03T13:05:19;5.90;;;1.93;;
5961;SDS011;3007;50.770;0.250;2023-04-03T13:07:48;7.67;;;2.57;;
5961;SDS011;3007;50.770;0.250;2023-04-03T13:10:18;2.13;;;1.63;;
5961;SDS011;3007;50.770;0.250;2023-04-03T13:12:49;5.57;;;2.40;;
5961;SDS011;3007;50.770;0.250;2023-04-03T13:15:18;2.83;;;2.17;;
5961;SDS011;3007;50.770;0.250;2023-04-03T13:17:48;6.03;;;2.40;;
5961;SDS011;3007;50.770;0.250;2023-04-03T13:20:18;4.07;;;2.27;;
5961;SDS011;3007;50.770;0.250;2023-04-03T13:22:49;3.23;;;1.80;;
5961;SDS011;3007;50.770;0.250;2023-04-03T13:25:24;5.30;;;2.20;;
5961;SDS011;3007;50.770;0.250;2023-04-03T13:27:55;5.50;;;2.33;;
5961;SDS011;3007;50.770;0.250;2023-04-03T13:30:27;5.27;;;1.87;;
5961;SDS011;3007;50.770;0.250;2023-04-03T13:32:56;2.97;;;1.77;;
5961;SDS011;3007;50.770;0.250;2023-04-03T13:35:26;4.83;;;2.10;;
5961;SDS011;3007;50.770;0.250;2023-04-03T13:37:56;3.80;;;2.00;;
5961;SDS011;3007;50.770;0.250;2023-04-03T13:40:25;3.97;;;2.10;;
5961;SDS011;3007;50.770;0.250;2023-04-03T13:43:02;7.87;;;2.30;;
5961;SDS011;3007;50.770;0.250;2023-04-03T13:45:33;5.40;;;2.00;;
5961;SDS011;3007;50.770;0.250;2023-04-03T13:48:08;6.23;;;2.43;;
5961;SDS011;3007;50.770;0.250;2023-04-03T13:50:51;4.10;;;1.93;;
5961;SDS011;3007;50.770;0.250;2023-04-03T13:53:21;4.33;;;1.90;;
5961;SDS011;3007;50.770;0.250;2023-04-03T13:55:53;4.63;;;2.70;;
5961;SDS011;3007;50.770;0.250;2023-04-03T13:58:25;5.07;;;2.23;;
5961;SDS011;3007;50.770;0.250;2023-04-03T14:00:54;2.97;;;2.03;;
5961;SDS011;3007;50.770;0.250;2023-04-03T14:03:24;5.70;;;2.30;;
5961;SDS011;3007;50.770;0.250;2023-04-03T14:05:55;6.30;;;2.27;;
5961;SDS011;3007;50.770;0.250;2023-04-03T14:08:22;3.80;;;2.03;;
5961;SDS011;3007;50.770;0.250;2023-04-03T14:10:49;7.17;;;2.20;;
5961;SDS011;3007;50.770;0.250;2023-04-03T14:13:17;3.13;;;1.80;;
5961;SDS011;3007;50.770;0.250;2023-04-03T14:15:48;8.13;;;2.57;;
5961;SDS011;3007;50.770;0.250;2023-04-03T14:18:16;6.97;;;2.60;;
5961;SDS011;3007;50.770;0.250;2023-04-03T14:20:44;4.30;;;2.73;;
5961;SDS011;3007;50.770;0.250;2023-04-03T14:23:14;4.17;;;2.20;;
5961;SDS011;3007;50.770;0.250;2023-04-03T14:25:41;6.77;;;2.80;;
5961;SDS011;3007;50.770;0.250;2023-04-03T14:28:14;8.27;;;2.73;;
5961;SDS011;3007;50.770;0.250;2023-04-03T14:30:42;5.23;;;2.50;;
5961;SDS011;3007;50.770;0.250;2023-04-03T14:33:12;4.30;;;2.50;;
5961;SDS011;3007;50.770;0.250;2023-04-03T14:35:41;7.93;;;3.20;;
5961;SDS011;3007;50.770;0.250;2023-04-03T14:38:12;7.80;;;2.93;;
5961;SDS011;3007;50.770;0.250;2023-04-03T14:40:48;5.60;;;2.90;;
5961;SDS011;3007;50.770;0.250;2023-04-03T14:43:15;7.60;;;2.97;;
5961;SDS011;3007;50.770;0.250;2023-04-03T14:45:42;6.07;;;2.90;;
5961;SDS011;3007;50.770;0.250;2023-04-03T14:48:12;4.83;;;2.77;;
5961;SDS011;3007;50.770;0.250;2023-04-03T14:50:44;4.30;;;2.83;;
5961;SDS011;3007;50.770;0.250;2023-04-03T14:53:11;4.80;;;2.73;;
5961;SDS011;3007;50.770;0.250;2023-04-03T14:55:39;11.73;;;3.77;;
5961;SDS011;3007;50.770;0.250;2023-04-03T14:58:08;6.50;;;3.40;;
5961;SDS011;3007;50.770;0.250;2023-04-03T15:00:38;4.80;;;2.57;;
5961;SDS011;3007;50.770;0.250;2023-04-03T15:03:04;5.07;;;3.07;;
5961;SDS011;3007;50.770;0.250;2023-04-03T15:05:33;5.73;;;2.80;;
5961;SDS011;3007;50.770;0.250;2023-04-03T15:08:02;5.57;;;3.10;;
5961;SDS011;3007;50.770;0.250;2023-04-03T15:10:30;7.30;;;3.23;;
5961;SDS011;3007;50.770;0.250;2023-04-03T15:12:58;6.03;;;3.30;;
5961;SDS011;3007;50.770;0.250;2023-04-03T15:15:27;8.77;;;3.93;;
5961;SDS011;3007;50.770;0.250;2023-04-03T15:17:55;7.93;;;3.60;;
5961;SDS011;3007;50.770;0.250;2023-04-03T15:20:24;6.67;;;3.33;;
5961;SDS011;3007;50.770;0.250;2023-04-03T15:22:54;7.93;;;3.27;;
5961;SDS011;3007;50.770;0.250;2023-04-03T15:25:22;8.07;;;3.83;;
5961;SDS011;3007;50.770;0.250;2023-04-03T15:27:49;7.73;;;3.63;;
5961;SDS011;3007;50.770;0.250;2023-04-03T15:30:17;3.87;;;3.17;;
5961;SDS011;3007;50.770;0.250;2023-04-03T15:32:44;7.73;;;3.93;;
5961;SDS011;3007;50.770;0.250;2023-04-03T15:35:11;7.07;;;3.87;;
5961;SDS011;3007;50.770;0.250;2023-04-03T15:37:38;5.20;;;3.77;;
5961;SDS011;3007;50.770;0.250;2023-04-03T15:40:07;10.90;;;3.87;;
5961;SDS011;3007;50.770;0.250;2023-04-03T15:42:35;9.63;;;3.43;;
5961;SDS011;3007;50.770;0.250;2023-04-03T15:45:02;8.70;;;3.83;;
5961;SDS011;3007;50.770;0.250;2023-04-03T15:47:29;7.33;;;3.77;;
5961;SDS011;3007;50.770;0.250;2023-04-03T15:49:56;6.80;;;3.17;;